Time,TemperatureF,DewpointF,PressureIn,WindDirection,WindDirectionDegrees,WindSpeedMPH,WindSpeedGustMPH,Humidity,HourlyPrecipIn,Conditions,Clouds,dailyrainin,SoftwareType,DateUTC
2013-06-12 00:00:00,67.9,65.0,29.84,SSE,157,0.0,0.0,91,0.00,,,0.00,weatherlink.com 1.10,2013-06-12 04:00:00,
2013-06-12 00:15:00,67.9,66.0,29.85,SSE,155,0.0,0.0,92,0.00,,,0.00,weatherlink.com 1.10,2013-06-12 04:15:00,
2013-06-12 00:30:00,67.9,65.0,29.85,SSE,155,0.0,0.0,91,0.00,,,0.00,weatherlink.com 1.10,2013-06-12 04:30:00,
2013-06-12 00:45:00,67.8,66.0,29.85,SSE,155,0.0,0.0,92,0.00,,,0.00,weatherlink.com 1.10,2013-06-12 04:45:00,
2013-06-12 01:00:00,67.4,65.0,29.85,SSE,155,0.0,0.0,91,0.00,,,0.00,weatherlink.com 1.10,2013-06-12 05:00:00,
2013-06-12 01:15:00,67.3,65.0,29.84,SSE,155,0.0,0.0,92,0.00,,,0.00,weatherlink.com 1.10,2013-06-12 05:15:00,
2013-06-12 01:30:00,67.3,65.0,29.82,SSE,155,0.0,1.0,93,0.00,,,0.00,weatherlink.com 1.10,2013-06-12 05:30:00,
2013-06-12 01:45:00,67.6,66.0,29.83,SE,143,0.0,2.0,93,0.00,,,0.00,weatherlink.com 1.10,2013-06-12 05:45:00,
2013-06-12 02:00:00,67.5,66.0,29.83,SE,143,0.0,0.0,93,0.00,,,0.00,weatherlink.com 1.10,2013-06-12 06:00:00,
2013-06-12 02:15:00,67.4,65.0,29.82,SE,143,0.0,0.0,93,0.00,,,0.00,weatherlink.com 1.10,2013-06-12 06:15:00,
2013-06-12 02:30:00,67.2,65.0,29.82,SE,144,0.0,0.0,93,0.00,,,0.00,weatherlink.com 1.10,2013-06-12 06:30:00,
2013-06-12 02:45:00,67.3,66.0,29.83,SE,144,0.0,0.0,94,0.00,,,0.00,weatherlink.com 1.10,2013-06-12 06:45:00,
2013-06-12 03:00:00,67.3,66.0,29.83,SE,142,0.0,0.0,94,0.00,,,0.00,weatherlink.com 1.10,2013-06-12 07:00:00,
2013-06-12 03:15:00,67.1,65.0,29.82,SE,142,0.0,0.0,94,0.00,,,0.00,weatherlink.com 1.10,2013-06-12 07:15:00,
2013-06-12 03:30:00,67.0,66.0,29.83,SE,142,0.0,0.0,95,0.00,,,0.00,weatherlink.com 1.10,2013-06-12 07:30:00,
2013-06-12 03:45:00,67.2,66.0,29.84,SE,142,0.0,0.0,96,0.00,,,0.00,weatherlink.com 1.10,2013-06-12 07:45:00,
2013-06-12 04:00:00,67.3,66.0,29.83,SSE,150,0.0,1.0,95,0.00,,,0.00,weatherlink.com 1.10,2013-06-12 08:00:00,
2013-06-12 04:15:00,67.4,66.0,29.85,SSE,150,0.0,0.0,96,0.00,,,0.00,weatherlink.com 1.10,2013-06-12 08:15:00,
2013-06-12 04:30:00,67.5,66.0,29.85,SSE,150,0.0,0.0,96,0.00,,,0.00,weatherlink.com 1.10,2013-06-12 08:30:00,
2013-06-12 04:45:00,67.8,66.0,29.86,East,80,0.0,1.0,95,0.00,,,0.00,weatherlink.com 1.10,2013-06-12 08:45:00,
2013-06-12 05:00:00,68.3,67.0,29.86,NNE,13,0.0,0.0,94,0.00,,,0.00,weatherlink.com 1.10,2013-06-12 09:00:00,
2013-06-12 05:15:00,68.2,67.0,29.86,NNE,13,0.0,0.0,94,0.00,,,0.00,weatherlink.com 1.10,2013-06-12 09:15:00,
2013-06-12 05:30:00,67.9,66.0,29.86,NNE,13,0.0,0.0,94,0.00,,,0.00,weatherlink.com 1.10,2013-06-12 09:30:00,
2013-06-12 05:45:00,67.5,66.0,29.85,NNE,13,0.0,0.0,95,0.00,,,0.00,weatherlink.com 1.10,2013-06-12 09:45:00,
2013-06-12 06:00:00,67.3,66.0,29.85,NNE,13,0.0,0.0,95,0.00,,,0.00,weatherlink.com 1.10,2013-06-12 10:00:00,
2013-06-12 06:15:00,67.1,66.0,29.84,NNE,13,0.0,0.0,96,0.00,,,0.00,weatherlink.com 1.10,2013-06-12 10:15:00,
2013-06-12 06:30:00,67.1,66.0,29.84,West,274,0.0,1.0,96,0.00,,,0.00,weatherlink.com 1.10,2013-06-12 10:30:00,
2013-06-12 06:45:00,67.0,66.0,29.84,West,274,0.0,0.0,96,0.00,,,0.00,weatherlink.com 1.10,2013-06-12 10:45:00,
2013-06-12 07:00:00,66.6,66.0,29.84,West,269,0.0,0.0,96,0.00,,,0.00,weatherlink.com 1.10,2013-06-12 11:00:00,
2013-06-12 07:15:00,66.3,65.0,29.83,West,269,0.0,0.0,96,0.00,,,0.00,weatherlink.com 1.10,2013-06-12 11:15:00,
2013-06-12 07:30:00,66.5,66.0,29.84,West,269,0.0,0.0,97,0.00,,,0.00,weatherlink.com 1.10,2013-06-12 11:30:00,
2013-06-12 07:45:00,66.8,66.0,29.85,West,269,0.0,0.0,97,0.00,,,0.00,weatherlink.com 1.10,2013-06-12 11:45:00,
2013-06-12 08:00:00,67.4,67.0,29.86,West,269,0.0,0.0,97,0.00,,,0.00,weatherlink.com 1.10,2013-06-12 12:00:00,
2013-06-12 08:15:00,67.8,67.0,29.86,NE,44,0.0,0.0,96,0.00,,,0.00,weatherlink.com 1.10,2013-06-12 12:15:00,
2013-06-12 08:30:00,68.6,67.0,29.89,ENE,67,0.0,0.0,95,0.00,,,0.00,weatherlink.com 1.10,2013-06-12 12:30:00,
2013-06-12 08:45:00,69.2,68.0,29.88,SSE,161,0.0,2.0,94,0.00,,,0.00,weatherlink.com 1.10,2013-06-12 12:45:00,
2013-06-12 09:00:00,69.7,68.0,29.88,SSE,148,0.0,1.0,94,0.00,,,0.00,weatherlink.com 1.10,2013-06-12 13:00:00,
2013-06-12 09:15:00,70.4,68.0,29.87,South,172,0.0,1.0,93,0.00,,,0.00,weatherlink.com 1.10,2013-06-12 13:15:00,
2013-06-12 09:30:00,71.5,69.0,29.87,South,184,0.0,1.0,92,0.00,,,0.00,weatherlink.com 1.10,2013-06-12 13:30:00,
2013-06-12 09:45:00,72.6,70.0,29.87,SW,225,0.0,1.0,90,0.00,,,0.00,weatherlink.com 1.10,2013-06-12 13:45:00,
2013-06-12 10:00:00,73.3,70.0,29.88,South,186,0.0,3.0,88,0.00,,,0.00,weatherlink.com 1.10,2013-06-12 14:00:00,
2013-06-12 10:15:00,73.7,70.0,29.88,West,263,0.0,1.0,89,0.00,,,0.00,weatherlink.com 1.10,2013-06-12 14:15:00,
2013-06-12 10:30:00,73.3,70.0,29.86,South,175,0.0,2.0,90,0.00,,,0.00,weatherlink.com 1.10,2013-06-12 14:30:00,
2013-06-12 10:45:00,74.3,71.0,29.87,SSW,200,0.0,4.0,88,0.00,,,0.00,weatherlink.com 1.10,2013-06-12 14:45:00,
2013-06-12 11:00:00,74.7,71.0,29.83,SW,234,1.0,3.0,87,0.00,,,0.00,weatherlink.com 1.10,2013-06-12 15:00:00,
2013-06-12 11:16:00,75.1,71.0,29.86,SSW,202,0.0,2.0,88,0.00,,,0.00,weatherlink.com 1.10,2013-06-12 15:16:00,
2013-06-12 11:31:00,75.9,72.0,29.88,WNW,284,4.0,5.0,88,0.00,,,0.00,weatherlink.com 1.10,2013-06-12 15:31:00,
2013-06-12 11:46:00,77.6,73.0,29.86,NW,319,0.0,2.0,85,0.00,,,0.00,weatherlink.com 1.10,2013-06-12 15:46:00,
2013-06-12 12:01:00,79.5,73.0,29.86,WNW,287,0.0,4.0,81,0.00,,,0.00,weatherlink.com 1.10,2013-06-12 16:01:00,
2013-06-12 12:16:00,80.3,73.0,29.85,ENE,71,0.0,2.0,79,0.00,,,0.00,weatherlink.com 1.10,2013-06-12 16:16:00,
2013-06-12 12:31:00,80.6,74.0,29.80,West,263,2.0,5.0,80,0.00,,,0.00,weatherlink.com 1.10,2013-06-12 16:31:00,
2013-06-12 12:46:00,81.6,75.0,29.82,WSW,251,2.0,6.0,79,0.00,,,0.00,weatherlink.com 1.10,2013-06-12 16:46:00,
2013-06-12 13:01:00,81.2,75.0,29.84,WSW,238,0.0,3.0,81,0.00,,,0.00,weatherlink.com 1.10,2013-06-12 17:01:00,
2013-06-12 13:16:00,80.5,74.0,29.82,North,360,0.0,5.0,80,0.00,,,0.00,weatherlink.com 1.10,2013-06-12 17:16:00,
2013-06-12 13:31:00,80.5,75.0,29.79,ESE,108,0.0,3.0,83,0.00,,,0.00,weatherlink.com 1.10,2013-06-12 17:31:00,
2013-06-12 13:46:00,80.6,74.0,29.77,South,182,1.0,5.0,81,0.00,,,0.00,weatherlink.com 1.10,2013-06-12 17:46:00,
2013-06-12 14:01:00,80.4,75.0,29.77,SW,224,0.0,4.0,82,0.00,,,0.00,weatherlink.com 1.10,2013-06-12 18:01:00,
2013-06-12 14:16:00,80.2,74.0,29.76,SSW,200,0.0,7.0,81,0.00,,,0.00,weatherlink.com 1.10,2013-06-12 18:16:00,
2013-06-12 14:31:00,80.8,75.0,29.77,South,186,2.0,7.0,83,0.00,,,0.00,weatherlink.com 1.10,2013-06-12 18:31:00,
2013-06-12 14:46:00,80.7,75.0,29.72,ESE,121,1.0,7.0,83,0.00,,,0.00,weatherlink.com 1.10,2013-06-12 18:46:00,
2013-06-12 15:01:00,81.0,75.0,29.72,SSW,205,0.0,5.0,82,0.00,,,0.00,weatherlink.com 1.10,2013-06-12 19:01:00,
2013-06-12 15:16:00,80.2,75.0,29.74,ESE,114,2.0,6.0,83,0.00,,,0.00,weatherlink.com 1.10,2013-06-12 19:16:00,
2013-06-12 15:31:00,80.4,75.0,29.73,SSW,213,1.0,4.0,84,0.00,,,0.00,weatherlink.com 1.10,2013-06-12 19:31:00,
2013-06-12 15:46:00,82.7,78.0,29.76,North,5,0.0,2.0,84,0.00,,,0.00,weatherlink.com 1.10,2013-06-12 19:46:00,
2013-06-12 16:01:00,84.4,77.0,29.76,WSW,248,1.0,7.0,79,0.00,,,0.00,weatherlink.com 1.10,2013-06-12 20:01:00,
2013-06-12 16:16:00,84.9,77.0,29.72,SE,139,2.0,4.0,78,0.00,,,0.00,weatherlink.com 1.10,2013-06-12 20:16:00,
2013-06-12 16:31:00,85.7,77.0,29.75,West,281,0.0,3.0,76,0.00,,,0.00,weatherlink.com 1.10,2013-06-12 20:31:00,
2013-06-12 16:46:00,85.5,77.0,29.76,SSW,194,0.0,3.0,76,0.00,,,0.00,weatherlink.com 1.10,2013-06-12 20:46:00,
2013-06-12 17:01:00,85.0,77.0,29.76,SSW,198,0.0,5.0,77,0.00,,,0.00,weatherlink.com 1.10,2013-06-12 21:01:00,
2013-06-12 17:16:00,85.7,77.0,29.75,West,261,1.0,6.0,75,0.00,,,0.00,weatherlink.com 1.10,2013-06-12 21:16:00,
2013-06-12 17:31:00,85.9,76.0,29.75,NW,306,0.0,9.0,72,0.00,,,0.00,weatherlink.com 1.10,2013-06-12 21:31:00,
2013-06-12 17:46:00,86.3,77.0,29.74,WSW,255,0.0,7.0,73,0.00,,,0.00,weatherlink.com 1.10,2013-06-12 21:46:00,
2013-06-12 18:01:00,85.9,77.0,29.72,WNW,296,0.0,2.0,74,0.00,,,0.00,weatherlink.com 1.10,2013-06-12 22:01:00,
2013-06-12 18:16:00,84.5,77.0,29.71,NW,306,0.0,1.0,78,0.00,,,0.00,weatherlink.com 1.10,2013-06-12 22:16:00,
2013-06-12 18:31:00,83.8,76.0,29.70,South,188,0.0,0.0,78,0.00,,,0.00,weatherlink.com 1.10,2013-06-12 22:31:00,
2013-06-12 18:46:00,83.7,75.0,29.70,NW,309,0.0,2.0,76,0.00,,,0.00,weatherlink.com 1.10,2013-06-12 22:46:00,
2013-06-12 19:01:00,83.9,76.0,29.70,NE,53,0.0,1.0,78,0.00,,,0.00,weatherlink.com 1.10,2013-06-12 23:01:00,
2013-06-12 19:16:00,83.2,76.0,29.68,SE,132,0.0,3.0,80,0.00,,,0.00,weatherlink.com 1.10,2013-06-12 23:16:00,
2013-06-12 19:32:00,82.1,75.0,29.68,SE,132,0.0,0.0,80,0.00,,,0.00,weatherlink.com 1.10,2013-06-12 23:32:00,
2013-06-12 19:47:00,81.2,75.0,29.66,SE,132,0.0,0.0,82,0.00,,,0.00,weatherlink.com 1.10,2013-06-12 23:47:00,
2013-06-12 20:02:00,80.5,75.0,29.68,SE,134,0.0,0.0,83,0.00,,,0.00,weatherlink.com 1.10,2013-06-13 00:02:00,
2013-06-12 20:17:00,80.1,74.0,29.68,SE,127,0.0,1.0,82,0.00,,,0.00,weatherlink.com 1.10,2013-06-13 00:17:00,
2013-06-12 20:32:00,80.4,75.0,29.67,ESE,109,0.0,1.0,83,0.00,,,0.00,weatherlink.com 1.10,2013-06-13 00:32:00,
2013-06-12 20:47:00,79.9,74.0,29.66,ESE,115,0.0,0.0,81,0.00,,,0.00,weatherlink.com 1.10,2013-06-13 00:47:00,
2013-06-12 21:02:00,78.9,75.0,29.67,WNW,286,0.0,2.0,87,0.10,,,0.10,weatherlink.com 1.10,2013-06-13 01:02:00,
2013-06-12 21:17:00,75.7,72.0,29.67,West,280,3.0,12.0,89,0.44,,,0.44,weatherlink.com 1.10,2013-06-13 01:17:00,
2013-06-12 21:32:00,69.4,66.0,29.63,South,173,0.0,9.0,88,0.62,,,0.62,weatherlink.com 1.10,2013-06-13 01:32:00,
2013-06-12 21:47:00,66.9,65.0,29.62,SSE,165,0.0,8.0,93,0.63,,,0.63,weatherlink.com 1.10,2013-06-13 01:47:00,
2013-06-12 22:02:00,66.3,65.0,29.65,NE,34,0.0,3.0,95,0.66,,,0.76,weatherlink.com 1.10,2013-06-13 02:02:00,
2013-06-12 22:17:00,66.6,66.0,29.65,NW,319,1.0,9.0,96,0.46,,,0.90,weatherlink.com 1.10,2013-06-13 02:17:00,
2013-06-12 22:32:00,67.1,65.0,29.71,NW,312,13.0,21.0,94,0.41,,,1.03,weatherlink.com 1.10,2013-06-13 02:32:00,
2013-06-12 22:47:00,65.6,64.0,29.67,WNW,292,6.0,10.0,95,0.70,,,1.33,weatherlink.com 1.10,2013-06-13 02:47:00,
2013-06-12 23:02:00,65.5,64.0,29.61,NNE,13,5.0,6.0,96,0.81,,,1.57,weatherlink.com 1.10,2013-06-13 03:02:00,
2013-06-12 23:17:00,65.7,65.0,29.67,South,174,3.0,4.0,96,0.79,,,1.69,weatherlink.com 1.10,2013-06-13 03:17:00,
2013-06-12 23:32:00,65.7,65.0,29.65,West,275,0.0,3.0,97,0.69,,,1.74,weatherlink.com 1.10,2013-06-13 03:32:00,
2013-06-12 23:47:00,65.9,65.0,29.64,ESE,109,0.0,3.0,97,0.41,,,1.76,weatherlink.com 1.10,2013-06-13 03:47:00,